Time;durP1;ratioP1;P1;durP2;ratioP2;P2;SDS_P1;SDS_P2;PMS_P1;PMS_P2;Temp;Humidity;BMP_temperature;BMP_pressure;BME280_temperature;BME280_humidity;BME280_pressure;Samples;Min_cycle;Max_cycle;Signal;HPM_P1;HPM_P2
2023/08/02 00:01:13;;;;;;;0.20;0.20;;;;;;;13.45;100.00;95441.59;5027971;28;20259;-76
2023/08/02 00:03:59;;;;;;;0.10;0.10;;;;;;;13.45;100.00;95424.66;5035445;28;20222;-77
2023/08/02 00:06:45;;;;;;;0.10;0.10;;;;;;;13.27;100.00;95431.66;5032665;28;20045;-77
2023/08/02 00:09:32;;;;;;;0.10;0.10;;;;;;;12.99;100.00;95423.38;5031913;28;20032;-77
2023/08/02 00:12:21;;;;;;;0.20;0.20;;;;;;;12.98;100.00;95413.72;5030985;28;20068;-77
2023/08/02 00:15:07;;;;;;;0.20;0.20;;;;;;;12.78;100.00;95425.53;5033198;28;20123;-77
2023/08/02 00:17:53;;;;;;;0.17;0.17;;;;;;;12.58;100.00;95420.41;5030043;28;20237;-77
2023/08/02 00:20:39;;;;;;;0.10;0.10;;;;;;;12.44;100.00;95435.56;5033874;28;20037;-76
2023/08/02 00:23:25;;;;;;;0.10;0.10;;;;;;;12.42;100.00;95438.53;5032056;28;20036;-78
2023/08/02 00:26:11;;;;;;;0.20;0.20;;;;;;;12.56;100.00;95444.03;5033162;28;20442;-78
2023/08/02 00:28:56;;;;;;;0.10;0.10;;;;;;;12.67;100.00;95442.84;5030919;28;20041;-77
2023/08/02 00:31:42;;;;;;;0.10;0.10;;;;;;;12.74;100.00;95437.91;5015855;28;20082;-78
2023/08/02 00:34:28;;;;;;;0.10;0.10;;;;;;;12.86;100.00;95420.63;5033130;28;20710;-76
2023/08/02 00:37:14;;;;;;;0.10;0.10;;;;;;;12.85;100.00;95421.72;5018147;28;20127;-75
2023/08/02 00:40:00;;;;;;;0.10;0.10;;;;;;;12.92;100.00;95420.28;5016232;28;20520;-76
2023/08/02 00:42:46;;;;;;;0.10;0.10;;;;;;;13.02;100.00;95430.88;5015889;28;20032;-76
2023/08/02 00:45:33;;;;;;;0.10;0.10;;;;;;;13.06;100.00;95437.25;5031398;28;20052;-77
2023/08/02 00:48:19;;;;;;;0.10;0.10;;;;;;;13.11;100.00;95428.34;5016571;28;20531;-76
2023/08/02 00:51:12;;;;;;;0.10;0.10;;;;;;;13.15;100.00;95420.50;5032244;28;20293;-76
2023/08/02 00:54:02;;;;;;;0.10;0.10;;;;;;;13.13;100.00;95426.16;5016077;28;20048;-78
2023/08/02 00:56:48;;;;;;;0.10;0.10;;;;;;;13.19;100.00;95432.28;5014367;28;20704;-77
2023/08/02 00:59:45;;;;;;;0.10;0.10;;;;;;;13.14;100.00;95433.13;5032162;28;20694;-77
2023/08/02 01:02:31;;;;;;;0.20;0.20;;;;;;;13.20;100.00;95444.63;5031685;28;20127;-77
2023/08/02 01:05:22;;;;;;;0.10;0.10;;;;;;;13.23;100.00;95425.25;5033337;28;20037;-77
2023/08/02 01:08:15;;;;;;;0.10;0.10;;;;;;;13.26;100.00;95427.38;5027496;28;20100;-76
2023/08/02 01:11:08;;;;;;;0.10;0.10;;;;;;;13.15;100.00;95433.91;5029767;28;20553;-77
2023/08/02 01:13:56;;;;;;;0.10;0.10;;;;;;;13.19;100.00;95419.63;5018548;28;20530;-77
2023/08/02 01:16:44;;;;;;;0.10;0.10;;;;;;;13.20;100.00;95420.47;5034742;28;20068;-78
2023/08/02 01:19:31;;;;;;;0.10;0.10;;;;;;;13.18;100.00;95404.63;5037742;28;20176;-76
2023/08/02 01:22:17;;;;;;;0.10;0.10;;;;;;;13.15;100.00;95409.75;5034845;28;20040;-77
2023/08/02 01:25:05;;;;;;;0.10;0.10;;;;;;;13.14;100.00;95408.16;5021012;28;20042;-75
2023/08/02 01:27:56;;;;;;;0.10;0.10;;;;;;;13.17;100.00;95402.22;5020625;28;20041;-77
2023/08/02 01:30:44;;;;;;;0.10;0.10;;;;;;;13.24;100.00;95413.44;5018006;28;20076;-76
2023/08/02 01:33:42;;;;;;;0.10;0.10;;;;;;;13.24;100.00;95413.44;5035254;28;20307;-78
2023/08/02 01:36:30;;;;;;;0.17;0.17;;;;;;;13.22;100.00;95408.34;5035433;28;20045;-77
2023/08/02 01:39:16;;;;;;;0.10;0.10;;;;;;;13.30;100.00;95398.81;5018550;28;20041;-78
2023/08/02 01:42:02;;;;;;;0.15;0.15;;;;;;;13.25;100.00;95396.22;5018963;28;20148;-76
2023/08/02 01:44:48;;;;;;;0.10;0.10;;;;;;;13.24;100.00;95383.88;5015463;28;20542;-77
2023/08/02 01:47:34;;;;;;;0.10;0.10;;;;;;;13.29;100.00;95384.59;5035543;28;20053;-76
2023/08/02 01:50:20;;;;;;;0.10;0.10;;;;;;;13.34;100.00;95386.41;5020323;28;20090;-77
2023/08/02 01:53:05;;;;;;;0.10;0.10;;;;;;;13.28;100.00;95376.81;5019721;28;20190;-77
2023/08/02 01:55:51;;;;;;;0.10;0.10;;;;;;;13.37;100.00;95380.44;5031975;28;20209;-76
2023/08/02 01:58:37;;;;;;;0.10;0.10;;;;;;;13.43;100.00;95378.50;5032602;28;20699;-78
2023/08/02 02:01:23;;;;;;;0.10;0.10;;;;;;;13.32;100.00;95377.84;5023441;28;20777;-77
2023/08/02 02:04:09;;;;;;;0.10;0.10;;;;;;;13.29;100.00;95373.84;5017275;28;20053;-77
2023/08/02 02:06:55;;;;;;;0.10;0.10;;;;;;;13.35;100.00;95361.16;5033715;28;20044;-75
2023/08/02 02:09:41;;;;;;;0.10;0.10;;;;;;;13.42;100.00;95366.94;5031503;28;20184;-75
2023/08/02 02:12:28;;;;;;;0.10;0.10;;;;;;;13.35;100.00;95350.41;5020604;28;20040;-77
2023/08/02 02:15:14;;;;;;;0.10;0.10;;;;;;;13.35;100.00;95351.19;5034567;28;20805;-77
2023/08/02 02:18:00;;;;;;;0.10;0.10;;;;;;;13.36;100.00;95346.63;5015639;28;20131;-78
2023/08/02 02:20:46;;;;;;;0.20;0.20;;;;;;;13.36;100.00;95357.38;5007156;28;20623;-78
2023/08/02 02:23:32;;;;;;;0.10;0.10;;;;;;;13.28;100.00;95348.06;5019033;28;20037;-78
2023/08/02 02:26:18;;;;;;;0.03;0.03;;;;;;;13.24;100.00;95340.91;5035206;28;20064;-77
2023/08/02 02:29:03;;;;;;;0.10;0.10;;;;;;;13.26;100.00;95331.47;5032181;28;20593;-79
2023/08/02 02:31:49;;;;;;;0.13;0.13;;;;;;;13.24;100.00;95332.84;5031846;28;20395;-77
2023/08/02 02:34:36;;;;;;;0.10;0.10;;;;;;;13.43;100.00;95320.19;5033978;28;20036;-79
2023/08/02 02:37:22;;;;;;;0.20;0.20;;;;;;;13.46;100.00;95314.19;5031238;28;20434;-77
2023/08/02 02:40:09;;;;;;;0.10;0.10;;;;;;;13.46;100.00;95308.81;5034236;28;20135;-77
2023/08/02 02:42:54;;;;;;;0.03;0.03;;;;;;;13.52;100.00;95312.22;5030866;28;20483;-78
2023/08/02 02:45:40;;;;;;;0.10;0.10;;;;;;;13.37;100.00;95302.53;5031361;28;20064;-77
2023/08/02 02:48:28;;;;;;;0.10;0.10;;;;;;;13.46;100.00;95294.59;5035980;28;20040;-78
2023/08/02 02:51:13;;;;;;;0.17;0.17;;;;;;;13.47;100.00;95283.56;5034162;28;20052;-78
2023/08/02 02:53:59;;;;;;;0.13;0.13;;;;;;;13.47;100.00;95288.16;5029530;28;20577;-79
2023/08/02 02:56:45;;;;;;;0.10;0.10;;;;;;;13.52;100.00;95296.09;5031003;28;20065;-77
2023/08/02 02:59:32;;;;;;;0.20;0.20;;;;;;;13.52;100.00;95291.53;5032530;28;20051;-80
2023/08/02 03:02:18;;;;;;;0.10;0.10;;;;;;;13.63;100.00;95287.59;5027841;28;20206;-76
2023/08/02 03:05:05;;;;;;;0.10;0.10;;;;;;;13.63;100.00;95279.53;5033284;28;20948;-78
2023/08/02 03:07:50;;;;;;;0.05;0.05;;;;;;;13.53;100.00;95268.94;5030343;28;20360;-78
2023/08/02 03:10:36;;;;;;;0.20;0.20;;;;;;;13.49;100.00;95265.25;5030442;28;20040;-77
2023/08/02 03:13:22;;;;;;;0.10;0.10;;;;;;;13.55;100.00;95274.84;5016572;28;20052;-77
2023/08/02 03:16:08;;;;;;;0.20;0.20;;;;;;;13.53;100.00;95262.75;5030400;28;20079;-79
2023/08/02 03:18:54;;;;;;;0.20;0.20;;;;;;;13.51;100.00;95256.91;5030585;28;20719;-78
2023/08/02 03:21:41;;;;;;;0.00;0.00;;;;;;;13.51;100.00;95249.63;5018140;28;20491;-78
2023/08/02 03:24:27;;;;;;;0.10;0.10;;;;;;;13.57;100.00;95231.53;5033864;28;20484;-78
2023/08/02 03:27:13;;;;;;;0.10;0.10;;;;;;;13.49;100.00;95224.94;5028131;28;20052;-78
2023/08/02 03:29:59;;;;;;;0.10;0.10;;;;;;;13.46;100.00;95214.78;5032958;28;20041;-80
2023/08/02 03:32:45;;;;;;;0.10;0.10;;;;;;;13.38;100.00;95208.22;5029987;28;20037;-79
2023/08/02 03:35:30;;;;;;;0.10;0.10;;;;;;;13.31;100.00;95228.50;5035648;28;20041;-79
2023/08/02 03:38:16;;;;;;;0.20;0.20;;;;;;;13.31;100.00;95233.88;5033406;28;20581;-78
2023/08/02 03:41:02;;;;;;;0.10;0.10;;;;;;;13.28;100.00;95226.41;5033089;28;20045;-80
2023/08/02 03:43:48;;;;;;;0.03;0.03;;;;;;;13.29;100.00;95209.19;5032708;28;20060;-77
2023/08/02 03:46:34;;;;;;;0.10;0.10;;;;;;;13.21;100.00;95209.84;5034340;28;20514;-79
2023/08/02 03:49:20;;;;;;;0.10;0.10;;;;;;;13.09;100.00;95215.69;5031718;28;20075;-78
2023/08/02 03:52:06;;;;;;;0.10;0.10;;;;;;;13.09;100.00;95213.78;5031902;28;20032;-79
2023/08/02 03:54:53;;;;;;;0.10;0.10;;;;;;;13.02;100.00;95220.63;5031724;28;20325;-78
2023/08/02 03:57:38;;;;;;;0.10;0.10;;;;;;;13.00;100.00;95215.56;5031190;28;20044;-79
2023/08/02 04:00:24;;;;;;;0.10;0.10;;;;;;;13.03;100.00;95220.31;5033344;28;20095;-78
2023/08/02 04:03:10;;;;;;;0.13;0.13;;;;;;;13.02;100.00;95226.00;5035820;28;20045;-78
2023/08/02 04:05:56;;;;;;;0.10;0.10;;;;;;;13.02;100.00;95231.38;5034873;28;20041;-75
2023/08/02 04:08:42;;;;;;;0.15;0.15;;;;;;;13.03;100.00;95222.22;5034273;28;20041;-76
2023/08/02 04:11:27;;;;;;;0.20;0.20;;;;;;;13.15;100.00;95224.44;5032923;28;20041;-76
2023/08/02 04:14:13;;;;;;;0.10;0.10;;;;;;;13.16;100.00;95220.69;5030006;28;20290;-76
2023/08/02 04:16:59;;;;;;;0.10;0.10;;;;;;;13.15;100.00;95205.63;5034429;28;20049;-78
2023/08/02 04:19:45;;;;;;;0.10;0.10;;;;;;;13.10;100.00;95180.47;5030239;28;20045;-76
2023/08/02 04:22:31;;;;;;;0.13;0.13;;;;;;;13.02;100.00;95167.72;5033624;28;20634;-76
2023/08/02 04:25:17;;;;;;;0.10;0.10;;;;;;;13.04;100.00;95164.72;5032047;28;20131;-78
2023/08/02 04:28:06;;;;;;;0.10;0.10;;;;;;;13.06;100.00;95190.19;5032790;28;20403;-79
2023/08/02 04:30:52;;;;;;;0.10;0.10;;;;;;;13.01;100.00;95198.34;5033822;28;20036;-77
2023/08/02 04:33:38;;;;;;;0.10;0.10;;;;;;;12.95;100.00;95191.47;5033690;28;20048;-77
2023/08/02 04:36:23;;;;;;;0.10;0.10;;;;;;;12.99;100.00;95191.66;5032846;28;20037;-77
2023/08/02 04:39:10;;;;;;;0.10;0.10;;;;;;;13.05;100.00;95191.28;5033546;28;20491;-78
2023/08/02 04:42:00;;;;;;;0.20;0.20;;;;;;;13.01;100.00;95182.25;5031791;28;20070;-77
2023/08/02 04:44:46;;;;;;;0.10;0.10;;;;;;;12.92;100.00;95184.00;5036109;28;20041;-76
2023/08/02 04:47:32;;;;;;;0.10;0.10;;;;;;;12.96;100.00;95176.94;5022609;28;20060;-76
2023/08/02 04:50:18;;;;;;;0.10;0.10;;;;;;;12.99;100.00;95173.66;5035102;28;20067;-79
2023/08/02 04:53:03;;;;;;;0.10;0.10;;;;;;;12.97;100.00;95164.31;5035683;28;20521;-78
2023/08/02 04:55:49;;;;;;;0.10;0.10;;;;;;;12.95;100.00;95167.28;5036761;28;20048;-76
2023/08/02 04:58:35;;;;;;;0.10;0.10;;;;;;;12.92;100.00;95165.22;5038972;28;20460;-78
2023/08/02 05:01:21;;;;;;;0.10;0.10;;;;;;;12.97;100.00;95164.31;5009495;28;20040;-76
2023/08/02 05:04:08;;;;;;;0.10;0.10;;;;;;;12.94;100.00;95151.50;5036586;28;20110;-78
2023/08/02 05:06:54;;;;;;;0.10;0.10;;;;;;;12.93;100.00;95134.59;5037105;28;20458;-79
2023/08/02 05:09:42;;;;;;;0.10;0.10;;;;;;;12.93;100.00;95123.84;5034727;28;20041;-78
2023/08/02 05:12:28;;;;;;;0.10;0.10;;;;;;;12.91;100.00;95128.69;5007822;28;20531;-80
2023/08/02 05:15:14;;;;;;;0.10;0.10;;;;;;;12.88;100.00;95121.25;5038599;28;20099;-78
2023/08/02 05:18:00;;;;;;;0.20;0.20;;;;;;;12.90;100.00;95126.31;5018877;28;20753;-79
2023/08/02 05:20:45;;;;;;;0.10;0.10;;;;;;;12.87;100.00;95119.66;5024572;28;20034;-76
2023/08/02 05:23:31;;;;;;;0.10;0.10;;;;;;;12.88;100.00;95109.72;5024026;28;20032;-77
2023/08/02 05:26:17;;;;;;;0.10;0.10;;;;;;;12.87;100.00;95097.38;5038646;28;20044;-76
2023/08/02 05:29:03;;;;;;;0.10;0.10;;;;;;;12.85;100.00;95081.56;5033884;28;20037;-78
2023/08/02 05:31:49;;;;;;;0.20;0.20;;;;;;;12.83;100.00;95073.00;5034097;28;20124;-79
2023/08/02 05:34:35;;;;;;;0.10;0.10;;;;;;;12.91;100.00;95061.56;5036870;28;20041;-78
2023/08/02 05:37:21;;;;;;;0.10;0.10;;;;;;;12.90;100.00;95062.66;5037158;28;20045;-79
2023/08/02 05:40:07;;;;;;;0.10;0.10;;;;;;;12.84;100.00;95053.16;5035762;28;20075;-77
2023/08/02 05:42:53;;;;;;;0.10;0.10;;;;;;;12.82;100.00;95044.56;5034502;28;20494;-78
2023/08/02 05:45:39;;;;;;;0.10;0.10;;;;;;;12.85;100.00;95038.63;5035727;28;20531;-79
2023/08/02 05:48:25;;;;;;;0.10;0.10;;;;;;;12.83;100.00;95030.84;5036117;28;20044;-78
2023/08/02 05:51:11;;;;;;;0.10;0.10;;;;;;;12.90;100.00;95030.47;5035603;28;20041;-78
2023/08/02 05:53:57;;;;;;;0.17;0.17;;;;;;;12.83;100.00;95035.41;5034076;28;20033;-79
2023/08/02 05:56:43;;;;;;;0.10;0.10;;;;;;;12.85;100.00;95041.31;5035810;28;20041;-79
2023/08/02 05:59:30;;;;;;;0.10;0.10;;;;;;;12.82;100.00;95023.88;5035240;28;20659;-78
2023/08/02 06:02:16;;;;;;;0.10;0.10;;;;;;;12.92;100.00;95017.56;5036715;28;20036;-77
2023/08/02 06:05:02;;;;;;;0.10;0.10;;;;;;;12.81;100.00;95022.28;5037233;28;20049;-78
2023/08/02 06:07:52;;;;;;;0.10;0.10;;;;;;;12.89;100.00;95034.25;5033862;28;20460;-79
2023/08/02 06:10:38;;;;;;;0.10;0.10;;;;;;;12.98;100.00;95019.03;5036855;28;20442;-78
2023/08/02 06:13:24;;;;;;;0.10;0.10;;;;;;;13.15;100.00;95010.41;5021930;28;20465;-78
2023/08/02 06:16:10;;;;;;;0.10;0.10;;;;;;;13.14;100.00;95002.63;5035657;28;20618;-78
2023/08/02 06:18:55;;;;;;;0.10;0.10;;;;;;;13.01;100.00;94983.53;5019997;28;20048;-78
2023/08/02 06:21:41;;;;;;;0.10;0.10;;;;;;;12.90;100.00;94989.41;5033652;28;20136;-77
2023/08/02 06:24:27;;;;;;;0.10;0.10;;;;;;;12.94;100.00;94979.66;5036305;28;20542;-78
2023/08/02 06:27:13;;;;;;;0.10;0.10;;;;;;;12.97;100.00;94958.38;5036814;28;20127;-78
2023/08/02 06:29:59;;;;;;;0.10;0.10;;;;;;;12.87;100.00;94947.06;5024258;28;20134;-77
2023/08/02 06:32:45;;;;;;;0.10;0.10;;;;;;;12.95;100.00;94957.88;5036066;28;20036;-77
2023/08/02 06:35:30;;;;;;;0.10;0.10;;;;;;;12.93;100.00;94965.44;5021149;28;20068;-78
2023/08/02 06:38:16;;;;;;;0.10;0.10;;;;;;;12.97;100.00;94962.94;5020893;28;20037;-78
2023/08/02 06:41:03;;;;;;;0.10;0.10;;;;;;;13.02;100.00;94969.00;5034304;28;20049;-79
2023/08/02 06:43:49;;;;;;;0.10;0.10;;;;;;;13.01;100.00;94967.44;5038369;28;20033;-78
2023/08/02 06:46:35;;;;;;;0.20;0.20;;;;;;;12.98;100.00;94969.91;5035734;28;20085;-77
2023/08/02 06:49:21;;;;;;;0.20;0.20;;;;;;;12.95;100.00;94954.41;5036823;28;20041;-77
2023/08/02 06:52:07;;;;;;;0.10;0.10;;;;;;;12.95;100.00;94955.19;5034765;28;20492;-79
2023/08/02 06:54:53;;;;;;;0.10;0.10;;;;;;;12.96;100.00;94966.72;5035347;28;20041;-80
2023/08/02 06:57:39;;;;;;;0.10;0.10;;;;;;;12.96;100.00;94956.00;5035518;28;20124;-79
2023/08/02 07:00:25;;;;;;;0.20;0.20;;;;;;;13.03;100.00;94951.00;5035387;28;20051;-79
2023/08/02 07:03:11;;;;;;;0.20;0.20;;;;;;;13.02;100.00;94927.94;5033933;28;20040;-80
2023/08/02 07:05:57;;;;;;;0.10;0.10;;;;;;;13.08;100.00;94934.81;5034136;28;20061;-79
2023/08/02 07:08:44;;;;;;;0.20;0.20;;;;;;;13.14;100.00;94930.91;5031905;28;20056;-79
2023/08/02 07:11:29;;;;;;;0.20;0.20;;;;;;;13.04;100.00;94934.59;5032899;28;20152;-79
2023/08/02 07:14:15;;;;;;;0.10;0.10;;;;;;;13.08;100.00;94932.91;5034038;28;20048;-80
2023/08/02 07:17:01;;;;;;;0.10;0.10;;;;;;;13.12;100.00;94925.03;5036204;28;20496;-80
2023/08/02 07:19:48;;;;;;;0.20;0.20;;;;;;;13.09;100.00;94922.97;5035478;28;20048;-79
2023/08/02 07:22:34;;;;;;;0.10;0.10;;;;;;;13.00;100.00;94914.81;5033126;28;20037;-79
2023/08/02 07:25:20;;;;;;;0.20;0.20;;;;;;;13.00;100.00;94914.81;5033713;28;20040;-79
2023/08/02 07:28:06;;;;;;;0.10;0.10;;;;;;;13.13;100.00;94909.72;5035763;28;20122;-78
2023/08/02 07:30:52;;;;;;;0.15;0.15;;;;;;;13.28;100.00;94902.16;5033033;28;20126;-79
2023/08/02 07:33:38;;;;;;;0.20;0.20;;;;;;;13.31;100.00;94892.72;5033314;28;20040;-79
2023/08/02 07:36:23;;;;;;;0.10;0.10;;;;;;;13.45;100.00;94885.38;5036701;28;20040;-79
2023/08/02 07:39:09;;;;;;;0.10;0.10;;;;;;;13.38;100.00;94882.31;5035494;28;20137;-80
2023/08/02 07:41:55;;;;;;;0.20;0.20;;;;;;;13.54;100.00;94863.94;5034969;28;20372;-80
2023/08/02 07:44:41;;;;;;;0.20;0.20;;;;;;;13.33;100.00;94866.34;5035577;28;20404;-79
2023/08/02 07:47:27;;;;;;;0.20;0.20;;;;;;;13.43;100.00;94866.09;5032688;28;20028;-78
2023/08/02 07:50:13;;;;;;;0.20;0.20;;;;;;;13.53;100.00;94873.91;5036271;28;20494;-79
2023/08/02 07:52:59;;;;;;;0.15;0.15;;;;;;;13.57;100.00;94855.28;5032466;28;20188;-78
2023/08/02 07:55:45;;;;;;;0.20;0.20;;;;;;;13.54;100.00;94859.41;5009019;28;20079;-79
2023/08/02 07:58:31;;;;;;;0.10;0.10;;;;;;;13.54;100.00;94839.75;5034421;28;20556;-79
2023/08/02 08:01:16;;;;;;;0.10;0.10;;;;;;;13.50;100.00;94831.53;5019507;28;20077;-79
2023/08/02 08:04:02;;;;;;;0.17;0.17;;;;;;;13.51;100.00;94816.19;5017009;28;20514;-80
2023/08/02 08:06:48;;;;;;;0.13;0.13;;;;;;;13.55;100.00;94806.44;5032970;28;20570;-79
2023/08/02 08:09:35;;;;;;;0.20;0.20;;;;;;;13.52;100.00;94799.75;5031920;28;20480;-80
2023/08/02 08:12:20;;;;;;;0.10;0.10;;;;;;;13.59;100.00;94794.75;5026162;28;20087;-78
2023/08/02 08:15:07;;;;;;;0.10;0.10;;;;;;;13.66;100.00;94787.06;5034303;28;20083;-79
2023/08/02 08:17:53;;;;;;;0.10;0.10;;;;;;;13.68;100.00;94785.94;5032523;28;20450;-79
2023/08/02 08:20:39;;;;;;;0.10;0.10;;;;;;;13.79;100.00;94763.88;5034762;28;20187;-78
2023/08/02 08:23:26;;;;;;;0.10;0.10;;;;;;;13.94;100.00;94784.19;5037034;28;20175;-79
2023/08/02 08:26:12;;;;;;;0.10;0.10;;;;;;;13.85;100.00;94761.84;5018934;28;20048;-80
2023/08/02 08:28:58;;;;;;;0.20;0.20;;;;;;;13.88;100.00;94767.41;5033194;28;20094;-79
2023/08/02 08:31:43;;;;;;;0.10;0.10;;;;;;;13.88;100.00;94767.41;5034464;28;20037;-78
2023/08/02 08:34:29;;;;;;;0.10;0.10;;;;;;;13.92;100.00;94759.50;5038014;28;20036;-78
2023/08/02 08:37:15;;;;;;;0.10;0.10;;;;;;;13.91;100.00;94752.53;5032912;28;20037;-80
2023/08/02 08:40:01;;;;;;;0.10;0.10;;;;;;;14.11;100.00;94743.13;5033701;28;20040;-78
2023/08/02 08:42:51;;;;;;;0.20;0.20;;;;;;;14.28;100.00;94721.66;5034490;28;20147;-79
2023/08/02 08:45:38;;;;;;;0.20;0.20;;;;;;;14.47;100.00;94732.97;5034870;28;20122;-79
2023/08/02 08:48:25;;;;;;;0.10;0.10;;;;;;;14.60;100.00;94733.91;5035201;28;20072;-79
2023/08/02 08:51:13;;;;;;;0.10;0.10;;;;;;;14.51;100.00;94751.94;5032050;28;20064;-79
2023/08/02 08:54:09;;;;;;;0.10;0.10;;;;;;;14.63;100.00;94744.06;5036405;28;20040;-79
2023/08/02 08:56:56;;;;;;;0.20;0.20;;;;;;;14.61;100.00;94730.13;5032925;28;20036;-79
2023/08/02 08:59:42;;;;;;;0.10;0.10;;;;;;;14.44;100.00;94735.44;5034573;28;20043;-80
2023/08/02 09:02:31;;;;;;;0.10;0.10;;;;;;;14.47;100.00;94716.81;5032908;28;20216;-80
2023/08/02 09:05:17;;;;;;;0.10;0.10;;;;;;;14.55;100.00;94731.38;5035685;28;20067;-79
2023/08/02 09:08:03;;;;;;;0.10;0.10;;;;;;;14.73;100.00;94735.69;5032134;28;20538;-79
2023/08/02 09:10:49;;;;;;;0.10;0.10;;;;;;;14.66;100.00;94718.41;5020801;28;20036;-81
2023/08/02 09:13:34;;;;;;;0.15;0.15;;;;;;;14.45;100.00;94726.25;5035021;28;20115;-79
2023/08/02 09:16:20;;;;;;;0.10;0.10;;;;;;;14.42;100.00;94737.66;5038124;28;20182;-79
2023/08/02 09:19:22;;;;;;;0.10;0.10;;;;;;;14.20;100.00;94733.19;5021166;28;20041;-80
2023/08/02 09:22:17;;;;;;;0.10;0.10;;;;;;;14.22;100.00;94747.91;5018803;28;20511;-80
2023/08/02 09:25:07;;;;;;;0.10;0.10;;;;;;;14.09;100.00;94739.97;5037633;28;20036;-80
2023/08/02 09:27:55;;;;;;;0.10;0.10;;;;;;;14.10;100.00;94734.25;5034238;28;20048;-79
2023/08/02 09:30:41;;;;;;;0.10;0.10;;;;;;;14.06;100.00;94727.91;5036130;28;20110;-79
2023/08/02 09:33:26;;;;;;;0.10;0.10;;;;;;;14.00;100.00;94733.75;5036706;28;20455;-79
2023/08/02 09:36:23;;;;;;;0.10;0.10;;;;;;;14.05;100.00;94734.41;5038461;28;20036;-79
2023/08/02 09:39:18;;;;;;;0.15;0.15;;;;;;;14.12;100.00;94731.25;5036252;28;20127;-80
2023/08/02 09:42:12;;;;;;;0.10;0.10;;;;;;;14.06;100.00;94719.84;5022554;28;20111;-79
2023/08/02 09:45:00;;;;;;;0.10;0.10;;;;;;;14.02;100.00;94712.72;5034665;28;20033;-77
2023/08/02 09:47:52;;;;;;;0.10;0.10;;;;;;;14.12;100.00;94721.28;5034158;28;20041;-78
2023/08/02 09:50:55;;;;;;;0.10;0.10;;;;;;;14.15;100.00;94701.03;5035378;28;20036;-78
2023/08/02 09:53:40;;;;;;;0.20;0.20;;;;;;;14.28;100.00;94697.44;5030836;28;20365;-78
2023/08/02 09:56:26;;;;;;;0.20;0.20;;;;;;;14.29;100.00;94690.94;5008348;28;20041;-78
2023/08/02 09:59:13;;;;;;;0.17;0.17;;;;;;;14.38;100.00;94685.56;5033849;28;20039;-78
2023/08/02 10:02:00;;;;;;;0.20;0.20;;;;;;;14.36;100.00;94668.97;5031280;28;20121;-79
2023/08/02 10:04:46;;;;;;;0.20;0.20;;;;;;;14.44;100.00;94678.94;5033548;28;20052;-78
2023/08/02 10:07:38;;;;;;;0.10;0.10;;;;;;;14.52;100.00;94672.78;5036260;28;20036;-78
2023/08/02 10:10:37;;;;;;;0.10;0.10;;;;;;;14.61;100.00;94678.97;5037072;28;20569;-78
2023/08/02 10:13:30;;;;;;;0.10;0.10;;;;;;;14.40;100.00;94669.94;5036159;28;20041;-78
2023/08/02 10:16:18;;;;;;;0.20;0.20;;;;;;;14.42;100.00;94644.28;5036818;28;20040;-78
2023/08/02 10:19:05;;;;;;;0.10;0.10;;;;;;;14.39;100.00;94661.03;5028535;28;20045;-77
2023/08/02 10:21:52;;;;;;;0.10;0.10;;;;;;;14.45;100.00;94667.06;5020427;28;20036;-79
2023/08/02 10:24:41;;;;;;;0.10;0.10;;;;;;;14.40;100.00;94648.41;5021380;28;20280;-77
2023/08/02 10:27:27;;;;;;;0.10;0.10;;;;;;;14.57;100.00;94624.22;5018946;28;20041;-77
2023/08/02 10:30:13;;;;;;;0.10;0.10;;;;;;;14.60;100.00;94628.16;5036732;28;20488;-77
2023/08/02 10:33:20;;;;;;;0.10;0.10;;;;;;;14.70;100.00;94625.91;5022411;28;20419;-78
2023/08/02 10:36:09;;;;;;;0.10;0.10;;;;;;;14.68;100.00;94613.91;5034119;28;20056;-77
2023/08/02 10:38:55;;;;;;;0.20;0.20;;;;;;;14.73;100.00;94616.44;5017511;28;21616;-79
2023/08/02 10:41:57;;;;;;;0.20;0.20;;;;;;;14.75;100.00;94611.50;5029580;28;20040;-78
2023/08/02 10:44:55;;;;;;;0.10;0.10;;;;;;;14.70;100.00;94609.75;5020443;28;20067;-77
2023/08/02 10:47:41;;;;;;;0.20;0.20;;;;;;;14.71;100.00;94608.69;5032901;28;20102;-77
2023/08/02 10:50:48;;;;;;;0.20;0.20;;;;;;;14.81;100.00;94601.38;5030669;28;20033;-78
2023/08/02 10:53:34;;;;;;;0.20;0.20;;;;;;;14.86;100.00;94593.91;5034752;28;20044;-78
2023/08/02 10:56:20;;;;;;;0.10;0.10;;;;;;;15.02;100.00;94599.59;5017367;28;20817;-79
2023/08/02 10:59:06;;;;;;;0.20;0.20;;;;;;;14.92;100.00;94589.94;5014776;28;20068;-78
2023/08/02 11:02:07;;;;;;;0.10;0.10;;;;;;;14.84;100.00;94581.88;5028508;28;20102;-79
2023/08/02 11:04:53;;;;;;;0.15;0.15;;;;;;;14.90;100.00;94586.00;5021183;28;20495;-78
2023/08/02 11:07:38;;;;;;;0.20;0.20;;;;;;;15.09;100.00;94564.84;5033791;28;20387;-79
2023/08/02 11:10:24;;;;;;;0.10;0.10;;;;;;;15.16;100.00;94569.75;5031820;28;20078;-77
2023/08/02 11:13:10;;;;;;;0.10;0.10;;;;;;;15.21;100.00;94559.59;5030661;28;20036;-76
2023/08/02 11:16:02;;;;;;;0.10;0.10;;;;;;;15.44;100.00;94554.72;5033653;28;20483;-78
2023/08/02 11:18:49;;;;;;;;;;;;;;;15.62;100.00;94547.38;5034234;28;20037;-79
2023/08/02 11:21:36;;;;;;;0.20;0.20;;;;;;;15.67;100.00;94546.41;5036930;28;19923;-77
2023/08/02 11:24:22;;;;;;;0.15;0.15;;;;;;;15.74;100.00;94554.75;5032350;28;20040;-79
2023/08/02 11:27:08;;;;;;;0.10;0.10;;;;;;;15.68;100.00;94547.97;5035924;28;20044;-78
2023/08/02 11:29:58;;;;;;;0.20;0.20;;;;;;;15.69;100.00;94546.84;5032385;28;20679;-79
2023/08/02 11:32:45;;;;;;;0.10;0.10;;;;;;;15.67;100.00;94539.09;5031687;28;20041;-78
2023/08/02 11:35:31;;;;;;;0.10;0.10;;;;;;;15.57;100.00;94539.47;5020250;28;20037;-78
2023/08/02 11:38:17;;;;;;;0.20;0.20;;;;;;;15.77;100.00;94544.09;5034282;28;20453;-79
2023/08/02 11:41:20;;;;;;;0.10;0.10;;;;;;;15.98;100.00;94543.34;5033934;28;20057;-77
2023/08/02 11:44:19;;;;;;;0.10;0.10;;;;;;;16.28;100.00;94517.88;5034402;28;20493;-78
2023/08/02 11:47:05;;;;;;;0.20;0.20;;;;;;;16.39;100.00;94521.72;5035772;28;20033;-78
2023/08/02 11:49:56;;;;;;;0.10;0.10;;;;;;;16.25;100.00;94501.53;5032445;28;20760;-78
2023/08/02 11:52:41;;;;;;;0.20;0.20;;;;;;;16.24;100.00;94506.16;5032430;28;20087;-79
2023/08/02 11:55:28;;;;;;;0.20;0.20;;;;;;;16.79;100.00;94491.50;5011539;28;20060;-78
2023/08/02 11:58:14;;;;;;;0.10;0.10;;;;;;;17.31;100.00;94471.16;5027013;28;20040;-79
2023/08/02 12:01:01;;;;;;;0.10;0.10;;;;;;;17.10;100.00;94473.97;5031428;28;20098;-79
2023/08/02 12:04:02;;;;;;;0.10;0.10;;;;;;;17.23;100.00;94478.25;5025256;28;20510;-79
2023/08/02 12:06:51;;;;;;;0.10;0.10;;;;;;;17.28;100.00;94480.75;5030784;28;20036;-79
2023/08/02 12:09:43;;;;;;;0.10;0.10;;;;;;;17.05;100.00;94466.91;5031107;28;20036;-79
2023/08/02 12:12:31;;;;;;;0.20;0.20;;;;;;;17.36;100.00;94471.72;5027920;28;20487;-77
2023/08/02 12:15:18;;;;;;;0.20;0.20;;;;;;;17.57;100.00;94471.56;5032965;28;20036;-79
2023/08/02 12:18:05;;;;;;;0.10;0.10;;;;;;;17.36;100.00;94474.44;5033635;28;20049;-79
2023/08/02 12:20:51;;;;;;;0.30;0.30;;;;;;;17.46;100.00;94471.25;5032018;28;20041;-79
2023/08/02 12:23:37;;;;;;;0.20;0.20;;;;;;;17.34;100.00;94473.97;5029216;28;20044;-80
2023/08/02 12:26:31;;;;;;;0.20;0.20;;;;;;;17.66;100.00;94485.75;5032397;28;20045;-79
2023/08/02 12:29:22;;;;;;;0.20;0.20;;;;;;;18.00;100.00;94454.72;5032324;28;20651;-76
2023/08/02 12:32:10;;;;;;;0.10;0.10;;;;;;;18.69;100.00;94444.63;5033896;28;20045;-79
2023/08/02 12:35:03;;;;;;;0.13;0.13;;;;;;;18.53;100.00;94451.91;5030146;28;20470;-78
2023/08/02 12:37:51;;;;;;;0.20;0.20;;;;;;;18.41;100.00;94444.63;5033632;28;20037;-79
2023/08/02 12:40:36;;;;;;;0.10;0.10;;;;;;;18.42;100.00;94456.25;5018870;28;20068;-79
2023/08/02 12:43:23;;;;;;;0.22;0.22;;;;;;;18.64;100.00;94445.63;5033104;28;20041;-79
2023/08/02 12:46:09;;;;;;;0.10;0.10;;;;;;;18.22;100.00;94444.50;5031099;28;20041;-77
2023/08/02 12:48:54;;;;;;;0.20;0.20;;;;;;;18.01;100.00;94448.19;5002796;28;20037;-80
2023/08/02 12:51:40;;;;;;;0.10;0.10;;;;;;;18.18;100.00;94440.91;5033380;28;20115;-79
2023/08/02 12:54:26;;;;;;;0.10;0.10;;;;;;;19.30;100.00;94429.81;5031200;28;20040;-80
2023/08/02 12:57:14;;;;;;;0.20;0.20;;;;;;;19.75;100.00;94418.44;5011925;28;20527;-80